sensor_id;sensor_type;location;lat;lon;timestamp;temperature;humidity
17571;DHT22;8903;52.220;20.978;2022-08-27T00:02:16;22.60;98.40
17571;DHT22;8903;52.220;20.978;2022-08-27T00:04:42;22.60;98.50
17571;DHT22;8903;52.220;20.978;2022-08-27T00:07:10;22.60;98.70
17571;DHT22;8903;52.220;20.978;2022-08-27T00:09:37;22.50;98.80
17571;DHT22;8903;52.220;20.978;2022-08-27T00:12:06;22.50;99.20
17571;DHT22;8903;52.220;20.978;2022-08-27T00:14:33;22.50;99.00
17571;DHT22;8903;52.220;20.978;2022-08-27T00:17:00;22.50;99.20
17571;DHT22;8903;52.220;20.978;2022-08-27T00:19:27;22.40;99.20
17571;DHT22;8903;52.220;20.978;2022-08-27T00:21:53;22.40;99.30
17571;DHT22;8903;52.220;20.978;2022-08-27T00:24:21;22.40;99.40
17571;DHT22;8903;52.220;20.978;2022-08-27T00:26:47;22.40;99.50
17571;DHT22;8903;52.220;20.978;2022-08-27T00:29:19;22.40;99.70
17571;DHT22;8903;52.220;20.978;2022-08-27T00:31:45;22.40;99.80
17571;DHT22;8903;52.220;20.978;2022-08-27T00:34:12;22.30;99.80
17571;DHT22;8903;52.220;20.978;2022-08-27T00:36:39;22.30;99.90
17571;DHT22;8903;52.220;20.978;2022-08-27T00:39:06;22.30;99.90
17571;DHT22;8903;52.220;20.978;2022-08-27T00:41:33;22.30;99.90
17571;DHT22;8903;52.220;20.978;2022-08-27T00:44:00;22.20;99.90
17571;DHT22;8903;52.220;20.978;2022-08-27T00:46:29;22.20;99.90
17571;DHT22;8903;52.220;20.978;2022-08-27T00:48:58;22.20;99.90
17571;DHT22;8903;52.220;20.978;2022-08-27T00:51:27;22.20;99.90
17571;DHT22;8903;52.220;20.978;2022-08-27T00:53:54;22.10;99.90
17571;DHT22;8903;52.220;20.978;2022-08-27T00:56:23;22.10;99.90
17571;DHT22;8903;52.220;20.978;2022-08-27T00:58:52;22.10;99.90
17571;DHT22;8903;52.220;20.978;2022-08-27T01:01:21;22.10;99.90
17571;DHT22;8903;52.220;20.978;2022-08-27T01:03:50;22.10;99.90
17571;DHT22;8903;52.220;20.978;2022-08-27T01:06:18;22.10;99.90
17571;DHT22;8903;52.220;20.978;2022-08-27T01:08:47;22.10;99.90
17571;DHT22;8903;52.220;20.978;2022-08-27T01:11:16;22.00;99.90
17571;DHT22;8903;52.220;20.978;2022-08-27T01:13:43;22.00;99.90
17571;DHT22;8903;52.220;20.978;2022-08-27T01:16:09;22.00;99.90
17571;DHT22;8903;52.220;20.978;2022-08-27T01:18:37;22.00;99.90
17571;DHT22;8903;52.220;20.978;2022-08-27T01:21:08;22.00;99.90
17571;DHT22;8903;52.220;20.978;2022-08-27T01:23:37;21.90;99.90
17571;DHT22;8903;52.220;20.978;2022-08-27T01:26:07;21.90;99.90
17571;DHT22;8903;52.220;20.978;2022-08-27T01:28:35;21.90;99.90
17571;DHT22;8903;52.220;20.978;2022-08-27T01:31:02;21.90;99.90
17571;DHT22;8903;52.220;20.978;2022-08-27T01:33:30;21.90;99.90
17571;DHT22;8903;52.220;20.978;2022-08-27T01:35:57;21.90;99.90
17571;DHT22;8903;52.220;20.978;2022-08-27T01:38:24;21.80;99.90
17571;DHT22;8903;52.220;20.978;2022-08-27T01:40:51;21.80;99.90
17571;DHT22;8903;52.220;20.978;2022-08-27T01:43:19;21.80;99.90
17571;DHT22;8903;52.220;20.978;2022-08-27T01:45:47;21.80;99.90
17571;DHT22;8903;52.220;20.978;2022-08-27T01:48:14;21.80;99.90
17571;DHT22;8903;52.220;20.978;2022-08-27T01:50:42;21.80;99.90
17571;DHT22;8903;52.220;20.978;2022-08-27T01:53:10;21.80;99.90
17571;DHT22;8903;52.220;20.978;2022-08-27T01:55:37;21.70;99.90
17571;DHT22;8903;52.220;20.978;2022-08-27T01:58:04;21.70;99.90
17571;DHT22;8903;52.220;20.978;2022-08-27T02:00:33;21.70;99.90
17571;DHT22;8903;52.220;20.978;2022-08-27T02:03:00;21.70;99.90
17571;DHT22;8903;52.220;20.978;2022-08-27T02:05:28;21.70;99.90
17571;DHT22;8903;52.220;20.978;2022-08-27T02:07:55;21.60;99.90
17571;DHT22;8903;52.220;20.978;2022-08-27T02:10:23;21.60;99.90
17571;DHT22;8903;52.220;20.978;2022-08-27T02:12:50;21.60;99.90
17571;DHT22;8903;52.220;20.978;2022-08-27T02:15:18;21.60;99.90
17571;DHT22;8903;52.220;20.978;2022-08-27T02:17:46;21.60;99.90
17571;DHT22;8903;52.220;20.978;2022-08-27T02:20:13;21.60;99.90
17571;DHT22;8903;52.220;20.978;2022-08-27T02:22:40;21.50;99.90
17571;DHT22;8903;52.220;20.978;2022-08-27T02:25:08;21.50;99.90
17571;DHT22;8903;52.220;20.978;2022-08-27T02:27:35;21.50;99.90
17571;DHT22;8903;52.220;20.978;2022-08-27T02:30:02;21.50;99.90
17571;DHT22;8903;52.220;20.978;2022-08-27T02:32:29;21.50;99.90
17571;DHT22;8903;52.220;20.978;2022-08-27T02:34:58;21.50;99.90
17571;DHT22;8903;52.220;20.978;2022-08-27T02:37:25;21.50;99.90
17571;DHT22;8903;52.220;20.978;2022-08-27T02:39:52;21.40;99.90
17571;DHT22;8903;52.220;20.978;2022-08-27T02:42:19;21.40;99.90
17571;DHT22;8903;52.220;20.978;2022-08-27T02:44:45;21.40;99.90
17571;DHT22;8903;52.220;20.978;2022-08-27T02:47:12;21.40;99.90
17571;DHT22;8903;52.220;20.978;2022-08-27T02:49:41;21.30;99.90
17571;DHT22;8903;52.220;20.978;2022-08-27T02:52:09;21.30;99.90
17571;DHT22;8903;52.220;20.978;2022-08-27T02:54:36;21.30;99.90
17571;DHT22;8903;52.220;20.978;2022-08-27T02:57:02;21.30;99.90
17571;DHT22;8903;52.220;20.978;2022-08-27T02:59:29;21.20;99.90
17571;DHT22;8903;52.220;20.978;2022-08-27T03:01:56;21.20;99.90
17571;DHT22;8903;52.220;20.978;2022-08-27T03:04:22;21.20;99.90
17571;DHT22;8903;52.220;20.978;2022-08-27T03:06:49;21.20;99.90
17571;DHT22;8903;52.220;20.978;2022-08-27T03:09:17;21.10;99.90
17571;DHT22;8903;52.220;20.978;2022-08-27T03:11:44;21.20;99.90
17571;DHT22;8903;52.220;20.978;2022-08-27T03:14:10;21.10;99.90
17571;DHT22;8903;52.220;20.978;2022-08-27T03:16:38;21.10;99.90
17571;DHT22;8903;52.220;20.978;2022-08-27T03:19:05;21.10;99.90
17571;DHT22;8903;52.220;20.978;2022-08-27T03:21:31;21.00;99.90
17571;DHT22;8903;52.220;20.978;2022-08-27T03:23:58;21.00;99.90
17571;DHT22;8903;52.220;20.978;2022-08-27T03:26:27;21.00;99.90
17571;DHT22;8903;52.220;20.978;2022-08-27T03:28:54;21.00;99.90
17571;DHT22;8903;52.220;20.978;2022-08-27T03:31:21;21.00;99.90
17571;DHT22;8903;52.220;20.978;2022-08-27T03:33:52;21.00;99.90
17571;DHT22;8903;52.220;20.978;2022-08-27T03:36:19;21.00;99.90
17571;DHT22;8903;52.220;20.978;2022-08-27T03:38:45;21.00;99.90
17571;DHT22;8903;52.220;20.978;2022-08-27T03:41:12;20.90;99.90
17571;DHT22;8903;52.220;20.978;2022-08-27T03:43:41;20.90;99.90
17571;DHT22;8903;52.220;20.978;2022-08-27T03:46:08;20.90;99.90
17571;DHT22;8903;52.220;20.978;2022-08-27T03:48:35;20.90;99.90
17571;DHT22;8903;52.220;20.978;2022-08-27T03:51:03;20.90;99.90
17571;DHT22;8903;52.220;20.978;2022-08-27T03:53:31;20.90;99.90
17571;DHT22;8903;52.220;20.978;2022-08-27T03:55:57;20.90;99.90
17571;DHT22;8903;52.220;20.978;2022-08-27T03:58:24;20.90;99.90
17571;DHT22;8903;52.220;20.978;2022-08-27T04:00:52;20.90;99.90
17571;DHT22;8903;52.220;20.978;2022-08-27T04:03:19;20.90;99.90
17571;DHT22;8903;52.220;20.978;2022-08-27T04:05:50;20.90;99.90
17571;DHT22;8903;52.220;20.978;2022-08-27T04:08:17;20.90;99.90
17571;DHT22;8903;52.220;20.978;2022-08-27T04:10:44;20.90;99.90
17571;DHT22;8903;52.220;20.978;2022-08-27T04:13:10;20.90;99.90
17571;DHT22;8903;52.220;20.978;2022-08-27T04:15:40;20.90;99.90
17571;DHT22;8903;52.220;20.978;2022-08-27T04:18:08;21.00;99.90
17571;DHT22;8903;52.220;20.978;2022-08-27T04:20:36;21.00;99.90
17571;DHT22;8903;52.220;20.978;2022-08-27T04:23:02;21.00;99.90
17571;DHT22;8903;52.220;20.978;2022-08-27T04:25:29;21.10;99.90
17571;DHT22;8903;52.220;20.978;2022-08-27T04:27:56;21.10;99.90
17571;DHT22;8903;52.220;20.978;2022-08-27T04:30:23;21.10;99.90
17571;DHT22;8903;52.220;20.978;2022-08-27T04:32:49;21.10;99.90
17571;DHT22;8903;52.220;20.978;2022-08-27T04:35:18;21.20;99.90
17571;DHT22;8903;52.220;20.978;2022-08-27T04:37:44;21.20;99.90
17571;DHT22;8903;52.220;20.978;2022-08-27T04:40:11;21.30;99.90
17571;DHT22;8903;52.220;20.978;2022-08-27T04:42:37;21.30;99.90
17571;DHT22;8903;52.220;20.978;2022-08-27T04:45:04;21.30;99.90
17571;DHT22;8903;52.220;20.978;2022-08-27T04:47:31;21.40;99.90
17571;DHT22;8903;52.220;20.978;2022-08-27T04:49:58;21.40;99.90
17571;DHT22;8903;52.220;20.978;2022-08-27T04:52:26;21.50;99.90
17571;DHT22;8903;52.220;20.978;2022-08-27T04:54:52;21.50;99.90
17571;DHT22;8903;52.220;20.978;2022-08-27T04:57:19;21.50;99.90
17571;DHT22;8903;52.220;20.978;2022-08-27T04:59:46;21.60;99.90
17571;DHT22;8903;52.220;20.978;2022-08-27T05:02:12;21.70;99.90
17571;DHT22;8903;52.220;20.978;2022-08-27T05:04:39;21.80;99.90
17571;DHT22;8903;52.220;20.978;2022-08-27T05:07:07;21.80;99.90
17571;DHT22;8903;52.220;20.978;2022-08-27T05:09:35;21.90;99.90
17571;DHT22;8903;52.220;20.978;2022-08-27T05:12:02;22.00;99.90
17571;DHT22;8903;52.220;20.978;2022-08-27T05:14:29;22.00;99.90
17571;DHT22;8903;52.220;20.978;2022-08-27T05:16:57;22.10;99.90
17571;DHT22;8903;52.220;20.978;2022-08-27T05:19:24;22.10;99.90
17571;DHT22;8903;52.220;20.978;2022-08-27T05:21:51;22.20;99.90
17571;DHT22;8903;52.220;20.978;2022-08-27T05:24:18;22.20;99.90
17571;DHT22;8903;52.220;20.978;2022-08-27T05:26:46;22.30;99.90
17571;DHT22;8903;52.220;20.978;2022-08-27T05:29:13;22.30;99.90
17571;DHT22;8903;52.220;20.978;2022-08-27T05:31:40;22.40;99.90
17571;DHT22;8903;52.220;20.978;2022-08-27T05:34:07;22.50;99.90
17571;DHT22;8903;52.220;20.978;2022-08-27T05:36:34;22.50;99.90
17571;DHT22;8903;52.220;20.978;2022-08-27T05:39:01;22.60;99.90
17571;DHT22;8903;52.220;20.978;2022-08-27T05:41:29;22.60;99.90
17571;DHT22;8903;52.220;20.978;2022-08-27T05:43:58;22.60;99.90
17571;DHT22;8903;52.220;20.978;2022-08-27T05:46:25;22.70;99.90
17571;DHT22;8903;52.220;20.978;2022-08-27T05:48:54;22.70;99.90
17571;DHT22;8903;52.220;20.978;2022-08-27T05:51:22;22.80;99.90
17571;DHT22;8903;52.220;20.978;2022-08-27T05:53:49;22.80;99.90
17571;DHT22;8903;52.220;20.978;2022-08-27T05:56:17;22.90;99.90
17571;DHT22;8903;52.220;20.978;2022-08-27T05:58:44;22.90;99.90
17571;DHT22;8903;52.220;20.978;2022-08-27T06:01:30;23.00;99.90
17571;DHT22;8903;52.220;20.978;2022-08-27T06:03:58;23.10;99.90
17571;DHT22;8903;52.220;20.978;2022-08-27T06:06:24;23.20;99.90
17571;DHT22;8903;52.220;20.978;2022-08-27T06:08:51;23.30;99.90
17571;DHT22;8903;52.220;20.978;2022-08-27T06:11:19;23.40;99.90
17571;DHT22;8903;52.220;20.978;2022-08-27T06:13:46;23.50;99.90
17571;DHT22;8903;52.220;20.978;2022-08-27T06:16:14;23.60;99.90
17571;DHT22;8903;52.220;20.978;2022-08-27T06:18:43;23.70;99.90
17571;DHT22;8903;52.220;20.978;2022-08-27T06:21:10;23.70;99.80
17571;DHT22;8903;52.220;20.978;2022-08-27T06:23:37;23.80;99.90
17571;DHT22;8903;52.220;20.978;2022-08-27T06:26:05;23.90;99.70
17571;DHT22;8903;52.220;20.978;2022-08-27T06:28:31;24.00;99.60
17571;DHT22;8903;52.220;20.978;2022-08-27T06:31:03;24.10;99.30
17571;DHT22;8903;52.220;20.978;2022-08-27T06:33:30;24.20;99.30
17571;DHT22;8903;52.220;20.978;2022-08-27T06:35:58;24.30;99.10
17571;DHT22;8903;52.220;20.978;2022-08-27T06:38:25;24.40;98.80
17571;DHT22;8903;52.220;20.978;2022-08-27T06:40:52;24.40;98.80
17571;DHT22;8903;52.220;20.978;2022-08-27T06:43:20;24.50;98.40
17571;DHT22;8903;52.220;20.978;2022-08-27T06:45:46;24.60;98.00
17571;DHT22;8903;52.220;20.978;2022-08-27T06:48:13;24.70;97.80
17571;DHT22;8903;52.220;20.978;2022-08-27T06:50:41;24.70;98.00
17571;DHT22;8903;52.220;20.978;2022-08-27T06:53:09;24.80;97.70
17571;DHT22;8903;52.220;20.978;2022-08-27T06:55:39;24.90;97.80
17571;DHT22;8903;52.220;20.978;2022-08-27T06:58:06;25.00;97.60
17571;DHT22;8903;52.220;20.978;2022-08-27T07:00:32;25.00;97.50
17571;DHT22;8903;52.220;20.978;2022-08-27T07:02:59;25.10;97.40
17571;DHT22;8903;52.220;20.978;2022-08-27T07:05:29;25.20;97.10
17571;DHT22;8903;52.220;20.978;2022-08-27T07:07:56;25.20;97.50
17571;DHT22;8903;52.220;20.978;2022-08-27T07:10:24;25.30;97.50
17571;DHT22;8903;52.220;20.978;2022-08-27T07:12:50;25.30;97.40
17571;DHT22;8903;52.220;20.978;2022-08-27T07:15:17;25.40;97.50
17571;DHT22;8903;52.220;20.978;2022-08-27T07:17:44;25.50;97.10
17571;DHT22;8903;52.220;20.978;2022-08-27T07:20:10;25.50;97.00
17571;DHT22;8903;52.220;20.978;2022-08-27T07:22:37;25.60;96.80
17571;DHT22;8903;52.220;20.978;2022-08-27T07:25:05;25.70;96.60
17571;DHT22;8903;52.220;20.978;2022-08-27T07:27:33;25.80;96.40
17571;DHT22;8903;52.220;20.978;2022-08-27T07:29:59;25.90;96.40
17571;DHT22;8903;52.220;20.978;2022-08-27T07:32:26;26.00;96.00
17571;DHT22;8903;52.220;20.978;2022-08-27T07:34:53;26.00;95.70
17571;DHT22;8903;52.220;20.978;2022-08-27T07:37:19;26.10;95.20
17571;DHT22;8903;52.220;20.978;2022-08-27T07:39:46;26.10;95.60
17571;DHT22;8903;52.220;20.978;2022-08-27T07:42:13;26.20;95.40
17571;DHT22;8903;52.220;20.978;2022-08-27T07:44:58;26.20;95.20
17571;DHT22;8903;52.220;20.978;2022-08-27T07:47:25;26.40;94.80
17571;DHT22;8903;52.220;20.978;2022-08-27T07:49:52;26.50;94.50
17571;DHT22;8903;52.220;20.978;2022-08-27T07:52:18;26.50;93.90
17571;DHT22;8903;52.220;20.978;2022-08-27T07:54:45;26.60;94.20
17571;DHT22;8903;52.220;20.978;2022-08-27T07:57:12;26.80;94.10
17571;DHT22;8903;52.220;20.978;2022-08-27T07:59:38;26.90;92.60
17571;DHT22;8903;52.220;20.978;2022-08-27T08:02:06;26.90;92.70
17571;DHT22;8903;52.220;20.978;2022-08-27T08:04:33;27.00;92.70
17571;DHT22;8903;52.220;20.978;2022-08-27T08:07:00;27.20;93.00
17571;DHT22;8903;52.220;20.978;2022-08-27T08:09:26;27.30;93.00
17571;DHT22;8903;52.220;20.978;2022-08-27T08:11:54;27.40;93.00
17571;DHT22;8903;52.220;20.978;2022-08-27T08:14:21;27.40;92.30
17571;DHT22;8903;52.220;20.978;2022-08-27T08:16:48;27.50;92.20
17571;DHT22;8903;52.220;20.978;2022-08-27T08:19:16;27.50;92.00
17571;DHT22;8903;52.220;20.978;2022-08-27T08:21:43;27.60;92.10
17571;DHT22;8903;52.220;20.978;2022-08-27T08:24:09;27.70;92.20
17571;DHT22;8903;52.220;20.978;2022-08-27T08:26:36;27.80;91.70
17571;DHT22;8903;52.220;20.978;2022-08-27T08:29:04;27.90;91.10
17571;DHT22;8903;52.220;20.978;2022-08-27T08:31:31;27.90;91.70
17571;DHT22;8903;52.220;20.978;2022-08-27T08:33:58;27.90;92.10
17571;DHT22;8903;52.220;20.978;2022-08-27T08:36:26;27.90;92.00
17571;DHT22;8903;52.220;20.978;2022-08-27T08:38:53;28.00;91.70
17571;DHT22;8903;52.220;20.978;2022-08-27T08:41:36;28.00;92.10
17571;DHT22;8903;52.220;20.978;2022-08-27T08:44:07;28.00;91.90
17571;DHT22;8903;52.220;20.978;2022-08-27T08:46:36;28.10;91.90
17571;DHT22;8903;52.220;20.978;2022-08-27T08:49:41;28.20;91.80
17571;DHT22;8903;52.220;20.978;2022-08-27T08:52:15;28.30;91.90
17571;DHT22;8903;52.220;20.978;2022-08-27T08:54:43;28.20;91.90
17571;DHT22;8903;52.220;20.978;2022-08-27T08:57:13;28.20;91.80
17571;DHT22;8903;52.220;20.978;2022-08-27T08:59:43;28.20;92.10
17571;DHT22;8903;52.220;20.978;2022-08-27T09:02:12;28.20;91.20
17571;DHT22;8903;52.220;20.978;2022-08-27T09:04:40;28.20;91.60
17571;DHT22;8903;52.220;20.978;2022-08-27T09:07:08;28.40;91.80
17571;DHT22;8903;52.220;20.978;2022-08-27T09:09:42;28.50;91.50
17571;DHT22;8903;52.220;20.978;2022-08-27T09:12:12;28.60;91.10
17571;DHT22;8903;52.220;20.978;2022-08-27T09:14:41;28.70;90.80
17571;DHT22;8903;52.220;20.978;2022-08-27T09:17:11;28.80;89.00
17571;DHT22;8903;52.220;20.978;2022-08-27T09:19:38;28.90;89.40
17571;DHT22;8903;52.220;20.978;2022-08-27T09:22:05;29.00;89.40
17571;DHT22;8903;52.220;20.978;2022-08-27T09:24:38;29.10;89.80
17571;DHT22;8903;52.220;20.978;2022-08-27T09:27:11;29.20;90.10
17571;DHT22;8903;52.220;20.978;2022-08-27T09:29:45;29.30;89.10
17571;DHT22;8903;52.220;20.978;2022-08-27T09:32:12;29.40;89.90
17571;DHT22;8903;52.220;20.978;2022-08-27T09:34:40;29.40;90.10
17571;DHT22;8903;52.220;20.978;2022-08-27T09:37:09;29.60;90.00
17571;DHT22;8903;52.220;20.978;2022-08-27T09:39:41;29.70;90.10
17571;DHT22;8903;52.220;20.978;2022-08-27T09:42:17;29.60;89.20
17571;DHT22;8903;52.220;20.978;2022-08-27T09:44:47;29.80;89.20
17571;DHT22;8903;52.220;20.978;2022-08-27T09:47:14;29.90;87.70
17571;DHT22;8903;52.220;20.978;2022-08-27T09:49:41;29.90;87.40
17571;DHT22;8903;52.220;20.978;2022-08-27T09:52:08;30.00;87.40
17571;DHT22;8903;52.220;20.978;2022-08-27T09:54:36;29.90;86.80
17571;DHT22;8903;52.220;20.978;2022-08-27T09:57:05;29.90;87.30
17571;DHT22;8903;52.220;20.978;2022-08-27T09:59:33;29.80;87.90
17571;DHT22;8903;52.220;20.978;2022-08-27T10:02:02;29.80;88.30
17571;DHT22;8903;52.220;20.978;2022-08-27T10:04:33;29.90;88.10
17571;DHT22;8903;52.220;20.978;2022-08-27T10:07:09;29.90;87.70
17571;DHT22;8903;52.220;20.978;2022-08-27T10:09:37;30.00;87.70
17571;DHT22;8903;52.220;20.978;2022-08-27T10:12:09;30.10;87.50
17571;DHT22;8903;52.220;20.978;2022-08-27T10:14:41;30.20;86.80
17571;DHT22;8903;52.220;20.978;2022-08-27T10:17:11;30.40;87.00
17571;DHT22;8903;52.220;20.978;2022-08-27T10:19:47;30.40;86.80
17571;DHT22;8903;52.220;20.978;2022-08-27T10:22:21;30.50;86.50
17571;DHT22;8903;52.220;20.978;2022-08-27T10:24:54;30.40;86.60
17571;DHT22;8903;52.220;20.978;2022-08-27T10:27:26;30.40;86.10
17571;DHT22;8903;52.220;20.978;2022-08-27T10:29:57;30.40;85.80
17571;DHT22;8903;52.220;20.978;2022-08-27T10:32:29;30.50;85.50
17571;DHT22;8903;52.220;20.978;2022-08-27T10:35:04;30.60;85.60
17571;DHT22;8903;52.220;20.978;2022-08-27T10:37:34;30.70;85.00
17571;DHT22;8903;52.220;20.978;2022-08-27T10:40:06;30.60;85.50
17571;DHT22;8903;52.220;20.978;2022-08-27T10:42:36;30.70;85.60
17571;DHT22;8903;52.220;20.978;2022-08-27T10:45:09;30.70;86.70
17571;DHT22;8903;52.220;20.978;2022-08-27T10:47:58;30.80;85.90
17571;DHT22;8903;52.220;20.978;2022-08-27T10:50:27;30.80;85.60
17571;DHT22;8903;52.220;20.978;2022-08-27T10:52:56;30.80;85.10
17571;DHT22;8903;52.220;20.978;2022-08-27T10:55:26;30.90;84.90
17571;DHT22;8903;52.220;20.978;2022-08-27T10:58:00;31.00;83.00
17571;DHT22;8903;52.220;20.978;2022-08-27T11:00:32;30.90;82.10
17571;DHT22;8903;52.220;20.978;2022-08-27T11:03:02;30.90;81.90
17571;DHT22;8903;52.220;20.978;2022-08-27T11:05:30;31.00;81.60
17571;DHT22;8903;52.220;20.978;2022-08-27T11:07:58;31.20;80.90
17571;DHT22;8903;52.220;20.978;2022-08-27T11:10:28;31.20;81.00
17571;DHT22;8903;52.220;20.978;2022-08-27T11:12:56;31.20;80.60
17571;DHT22;8903;52.220;20.978;2022-08-27T11:15:26;31.40;79.50
17571;DHT22;8903;52.220;20.978;2022-08-27T11:17:58;31.30;78.10
17571;DHT22;8903;52.220;20.978;2022-08-27T11:20:27;31.40;78.00
17571;DHT22;8903;52.220;20.978;2022-08-27T11:22:56;31.50;77.40
17571;DHT22;8903;52.220;20.978;2022-08-27T11:25:29;31.60;77.10
17571;DHT22;8903;52.220;20.978;2022-08-27T11:27:57;31.80;75.90
17571;DHT22;8903;52.220;20.978;2022-08-27T11:30:26;32.00;75.90
17571;DHT22;8903;52.220;20.978;2022-08-27T11:33:06;33.10;75.00
17571;DHT22;8903;52.220;20.978;2022-08-27T11:35:39;34.70;71.60
17571;DHT22;8903;52.220;20.978;2022-08-27T11:38:14;35.40;69.70
17571;DHT22;8903;52.220;20.978;2022-08-27T11:40:54;35.50;69.80
17571;DHT22;8903;52.220;20.978;2022-08-27T11:43:25;35.70;69.20
17571;DHT22;8903;52.220;20.978;2022-08-27T11:45:54;35.90;66.80
17571;DHT22;8903;52.220;20.978;2022-08-27T11:48:22;36.00;67.20
17571;DHT22;8903;52.220;20.978;2022-08-27T11:50:55;35.70;67.30
17571;DHT22;8903;52.220;20.978;2022-08-27T11:53:26;35.60;67.90
17571;DHT22;8903;52.220;20.978;2022-08-27T11:55:54;35.50;67.30
17571;DHT22;8903;52.220;20.978;2022-08-27T11:58:23;35.40;67.60
17571;DHT22;8903;52.220;20.978;2022-08-27T12:00:50;35.70;66.90
17571;DHT22;8903;52.220;20.978;2022-08-27T12:03:22;36.10;66.70
17571;DHT22;8903;52.220;20.978;2022-08-27T12:06:06;36.40;66.00
17571;DHT22;8903;52.220;20.978;2022-08-27T12:08:34;37.10;65.30
17571;DHT22;8903;52.220;20.978;2022-08-27T12:11:05;38.00;65.00
17571;DHT22;8903;52.220;20.978;2022-08-27T12:13:36;39.00;62.10
17571;DHT22;8903;52.220;20.978;2022-08-27T12:16:08;40.30;60.70
17571;DHT22;8903;52.220;20.978;2022-08-27T12:18:42;40.80;59.30
17571;DHT22;8903;52.220;20.978;2022-08-27T12:21:14;41.50;55.20
17571;DHT22;8903;52.220;20.978;2022-08-27T12:23:43;41.70;54.70
17571;DHT22;8903;52.220;20.978;2022-08-27T12:26:16;42.40;55.30
17571;DHT22;8903;52.220;20.978;2022-08-27T12:28:44;43.30;53.80
17571;DHT22;8903;52.220;20.978;2022-08-27T12:31:10;44.40;53.50
17571;DHT22;8903;52.220;20.978;2022-08-27T12:33:42;45.40;52.20
17571;DHT22;8903;52.220;20.978;2022-08-27T12:36:12;45.50;53.40
17571;DHT22;8903;52.220;20.978;2022-08-27T12:38:43;45.50;52.70
17571;DHT22;8903;52.220;20.978;2022-08-27T12:41:12;44.90;50.00
17571;DHT22;8903;52.220;20.978;2022-08-27T12:44:00;44.80;50.30
17571;DHT22;8903;52.220;20.978;2022-08-27T12:46:27;44.10;51.00
17571;DHT22;8903;52.220;20.978;2022-08-27T12:48:54;43.80;52.00
17571;DHT22;8903;52.220;20.978;2022-08-27T12:51:22;43.60;51.10
17571;DHT22;8903;52.220;20.978;2022-08-27T12:53:51;43.00;51.00
17571;DHT22;8903;52.220;20.978;2022-08-27T12:56:25;42.40;52.10
17571;DHT22;8903;52.220;20.978;2022-08-27T12:58:55;42.00;52.20
17571;DHT22;8903;52.220;20.978;2022-08-27T13:01:28;41.20;53.60
17571;DHT22;8903;52.220;20.978;2022-08-27T13:03:57;40.70;51.80
17571;DHT22;8903;52.220;20.978;2022-08-27T13:06:26;40.50;52.70
17571;DHT22;8903;52.220;20.978;2022-08-27T13:08:55;40.90;52.60
17571;DHT22;8903;52.220;20.978;2022-08-27T13:11:24;40.50;53.00
17571;DHT22;8903;52.220;20.978;2022-08-27T13:13:51;39.40;55.80
17571;DHT22;8903;52.220;20.978;2022-08-27T13:16:18;38.50;58.20
17571;DHT22;8903;52.220;20.978;2022-08-27T13:18:46;37.90;59.00
17571;DHT22;8903;52.220;20.978;2022-08-27T13:21:15;37.50;60.10
17571;DHT22;8903;52.220;20.978;2022-08-27T13:23:45;37.70;60.50
17571;DHT22;8903;52.220;20.978;2022-08-27T13:26:19;37.90;58.90
17571;DHT22;8903;52.220;20.978;2022-08-27T13:28:46;37.80;57.40
17571;DHT22;8903;52.220;20.978;2022-08-27T13:31:17;38.00;56.20
17571;DHT22;8903;52.220;20.978;2022-08-27T13:33:44;38.30;57.10
17571;DHT22;8903;52.220;20.978;2022-08-27T13:36:11;37.70;57.20
17571;DHT22;8903;52.220;20.978;2022-08-27T13:38:39;37.20;57.80
17571;DHT22;8903;52.220;20.978;2022-08-27T13:41:06;36.80;58.60
17571;DHT22;8903;52.220;20.978;2022-08-27T13:43:36;36.50;60.60
17571;DHT22;8903;52.220;20.978;2022-08-27T13:46:05;36.10;60.00
17571;DHT22;8903;52.220;20.978;2022-08-27T13:48:32;36.10;60.90
17571;DHT22;8903;52.220;20.978;2022-08-27T13:50:59;36.30;61.90
17571;DHT22;8903;52.220;20.978;2022-08-27T13:53:27;36.40;61.20
17571;DHT22;8903;52.220;20.978;2022-08-27T13:56:21;35.90;61.60
17571;DHT22;8903;52.220;20.978;2022-08-27T13:58:50;35.50;61.80
17571;DHT22;8903;52.220;20.978;2022-08-27T14:01:24;35.20;63.00
17571;DHT22;8903;52.220;20.978;2022-08-27T14:03:54;34.90;63.10
17571;DHT22;8903;52.220;20.978;2022-08-27T14:06:22;34.60;63.30
17571;DHT22;8903;52.220;20.978;2022-08-27T14:08:49;34.60;65.50
17571;DHT22;8903;52.220;20.978;2022-08-27T14:11:16;35.20;63.20
17571;DHT22;8903;52.220;20.978;2022-08-27T14:13:47;36.00;62.20
17571;DHT22;8903;52.220;20.978;2022-08-27T14:16:22;36.00;61.90
17571;DHT22;8903;52.220;20.978;2022-08-27T14:18:50;35.80;62.00
17571;DHT22;8903;52.220;20.978;2022-08-27T14:21:17;35.70;62.10
17571;DHT22;8903;52.220;20.978;2022-08-27T14:23:44;35.70;61.90
17571;DHT22;8903;52.220;20.978;2022-08-27T14:26:10;35.40;62.80
17571;DHT22;8903;52.220;20.978;2022-08-27T14:28:38;35.10;62.50
17571;DHT22;8903;52.220;20.978;2022-08-27T14:31:08;34.80;63.30
17571;DHT22;8903;52.220;20.978;2022-08-27T14:33:36;34.70;63.80
17571;DHT22;8903;52.220;20.978;2022-08-27T14:36:02;35.30;63.40
17571;DHT22;8903;52.220;20.978;2022-08-27T14:38:30;35.80;62.50
17571;DHT22;8903;52.220;20.978;2022-08-27T14:40:58;35.50;62.80
17571;DHT22;8903;52.220;20.978;2022-08-27T14:43:25;35.80;62.00
17571;DHT22;8903;52.220;20.978;2022-08-27T14:45:51;35.90;62.00
17571;DHT22;8903;52.220;20.978;2022-08-27T14:48:19;35.60;61.60
17571;DHT22;8903;52.220;20.978;2022-08-27T14:50:47;35.10;62.90
17571;DHT22;8903;52.220;20.978;2022-08-27T14:53:14;34.80;62.90
17571;DHT22;8903;52.220;20.978;2022-08-27T14:55:41;34.40;64.10
17571;DHT22;8903;52.220;20.978;2022-08-27T14:58:08;34.30;64.20
17571;DHT22;8903;52.220;20.978;2022-08-27T15:00:35;34.00;63.80
17571;DHT22;8903;52.220;20.978;2022-08-27T15:03:02;33.70;64.10
17571;DHT22;8903;52.220;20.978;2022-08-27T15:05:28;33.30;64.40
17571;DHT22;8903;52.220;20.978;2022-08-27T15:07:56;33.00;64.90
17571;DHT22;8903;52.220;20.978;2022-08-27T15:10:23;32.90;65.10
17571;DHT22;8903;52.220;20.978;2022-08-27T15:12:51;32.80;66.00
17571;DHT22;8903;52.220;20.978;2022-08-27T15:15:18;32.60;66.10
17571;DHT22;8903;52.220;20.978;2022-08-27T15:17:45;32.50;66.30
17571;DHT22;8903;52.220;20.978;2022-08-27T15:20:12;32.40;67.00
17571;DHT22;8903;52.220;20.978;2022-08-27T15:22:39;32.20;67.00
17571;DHT22;8903;52.220;20.978;2022-08-27T15:25:08;32.00;66.80
17571;DHT22;8903;52.220;20.978;2022-08-27T15:27:35;31.90;67.20
17571;DHT22;8903;52.220;20.978;2022-08-27T15:30:03;31.80;68.20
17571;DHT22;8903;52.220;20.978;2022-08-27T15:32:31;31.60;68.30
17571;DHT22;8903;52.220;20.978;2022-08-27T15:34:58;31.50;68.50
17571;DHT22;8903;52.220;20.978;2022-08-27T15:37:26;31.40;68.60
17571;DHT22;8903;52.220;20.978;2022-08-27T15:39:53;31.40;68.80